Liberty Hill, TX

5:19 PM CDT on March 27, 2015 (GMT -0500)
Bullion Hollow Farms | | Change Station
CLOSE
Current Station
Personal Weather Station
Location: Georgetown, TX
Elevation: 930 ft
Nearby Weather Stations

Elev 930 ft 30.70 °N, 97.80 °W | Updated 18 minutes ago

Clear
Clear
82.0 °F
Feels Like 80 °F
N
4.9
Wind Variable Wind from NW
Gusts 5.6 mph

Today
High -- | Low -- °F
--% Chance of Precip.
Yesterday
High -- | Low -- °F
Precip. -- in
7:27 AM 7:47 PM
First Quarter, 56% visible
Pressure 30.12 in
Visibility 10.0 miles
Clouds Clear
Heat Index 80 °F
Dew Point 12 °F
Humidity 7%
Rainfall 0.00 in
Snow Depth Not available.
UV 14.0 out of 12
Pollen 10.20 out of 12
Air Quality Not available.
Flu Activity Not available.
METAR KRYW 272155Z AUTO 28004KT 10SM CLR 26/M02 A3012 RMK AO2 T02571017

More Conditions Fewer Conditions

Pressure 30.12 in
Visibility 10.0 miles
Clouds Clear
Heat Index 80 °F
Dew Point 12 °F
Humidity 7%
Rainfall 0.00 in
Snow Depth Not available.
UV 14.0 out of 12
Pollen 10.20 out of 12
Air Quality Not available.
Flu Activity Not available.
METAR KRYW 272155Z AUTO 28004KT 10SM CLR 26/M02 A3012 RMK AO2 T02571017

More Conditions Fewer Conditions

10-Day Weather Forecast

Almanac

Astronomy

Mar. 27, 2015 Rise Set
Actual Time
Civil Twilight
Nautical Twilight
Astronomical Twilight
Moon
Length of Visible Light
Length of Day
Tomorrow will be .
, % of the Moon is Illuminated

Today's Extremes

State Highs State Lows

Community

WunderPhotos

Upload Photos

1,808,844 photos uploaded!

WunderBlogs® & News

Nearby

Air Quality

  Air Quality AQ Index Pollutant
Not available.

Snow Depth

Station Depth Elevation

Earthquake Activity

City Distance Mag. Time & Date
Minimum magnitude displayed is 2.5.

Coastal Water Temperatures

Place Temperature

Stations

Nearby Weather Stations

Station Location Temp. Windchill Dew Point Humidity Wind Precip. Elev Updated Type